Latest Weather Observations for Forrest

IDW60801

Issued at 5:43 pm WST Monday 17 December 2018 (issued every 10 minutes, with the page automatically refreshed every 10 minutes)

About weather observations | Map of weather stations | Latest weather observations for WA | Other Formats
Station Details ID: 011052 Name: FORREST Lat: -30.85 Lon: 128.11 Height: 159.0 m
Data from the previous 72 hours. | See also: Recent months at Forrest
Date/Time
WST
Temp
°C
App
Temp
°C
Dew
Point
°C
Rel
Hum
%
Delta-T
°C
Wind Press
QNH
hPa
Press
MSL
hPa
Rain since
9am
mm
Dir  Spd
km/h
Gust
km/h
Spd
kts
Gust
kts
17/05:30pm 34.8 29.7 13.6 28 13.1 SW 33 41 18 22 997.6 996.9 0.0
17/05:00pm 36.1 30.4 13.0 25 14.2 SW 35 44 19 24 997.0 996.3 0.0
17/04:30pm 37.5 31.2 12.2 22 15.4 WSW 37 46 20 25 996.6 995.9 0.0
17/04:00pm 39.2 33.9 11.3 19 16.9 WSW 30 41 16 22 995.9 995.2 0.0
17/03:40pm 40.5 33.8 9.8 16 18.2 W 35 52 19 28 995.6 994.9 0.0
17/03:34pm 40.0 31.7 9.4 16 18.0 NW 43 57 23 31 995.4 994.7 0.0
17/03:30pm 40.9 32.0 9.2 15 18.7 NW 46 57 25 31 995.2 994.5 0.0
17/03:00pm 42.3 31.9 4.3 10 21.1 NNW 48 69 26 37 995.1 994.4 0.0
17/02:56pm 42.3 31.5 4.3 10 21.0 NNW 50 69 27 37 995.0 994.2 0.0
17/02:30pm 43.1 32.2 3.4 9 21.7 NNW 50 65 27 35 995.2 994.5 0.0
17/02:01pm 42.2 31.1 4.3 10 20.9 NNW 52 70 28 38 995.6 994.9 0.0
17/02:00pm 42.0 30.2 2.6 9 21.4 NNW 54 70 29 38 995.4 994.7 0.0
17/01:30pm 42.4 33.4 4.4 10 21.0 NNW 41 59 22 32 995.8 995.1 0.0
17/01:08pm 42.7 34.8 6.0 11 20.8 NNW 37 56 20 30 995.9 995.2 0.0
17/01:00pm 42.5 33.4 5.9 11 20.8 NNW 43 56 23 30 996.0 995.3 0.0
17/12:30pm 42.6 31.9 4.6 10 21.1 N 50 63 27 34 996.1 995.4 0.0
17/12:16pm 41.5 32.0 3.7 10 20.6 N 43 61 23 33 996.2 995.5 0.0
17/12:05pm 41.0 32.2 3.4 10 20.4 NW 39 56 21 30 996.1 995.4 0.0
17/12:04pm 40.8 32.3 3.2 10 20.3 NW 37 56 20 30 996.2 995.5 0.0
17/12:00pm 40.7 31.7 4.5 11 20.0 NNW 41 52 22 28 996.3 995.6 0.0
17/11:30am 41.9 33.9 4.0 10 20.8 N 35 61 19 33 996.5 995.8 0.0
17/11:05am 42.6 35.4 5.9 11 20.8 N 33 52 18 28 996.7 996.0 0.0
17/11:00am 41.8 34.5 5.3 11 20.5 N 33 48 18 26 996.8 996.1 0.0
17/10:30am 41.2 33.0 4.9 11 20.1 NNE 37 52 20 28 997.0 996.3 0.0
17/10:00am 40.4 32.0 5.5 12 19.6 N 39 52 21 28 997.6 996.9 0.0
17/09:30am 38.5 30.4 5.2 13 18.3 NNE 37 48 20 26 998.0 997.3 0.0
17/09:00am 36.5 28.3 4.7 14 17.3 NNE 37 48 20 26 998.7 997.9 0.0
17/08:30am 35.5 26.6 4.9 15 16.5 NNE 41 52 22 28 998.9 998.1 0.0
17/08:00am 33.3 23.6 5.8 18 14.9 NNE 46 59 25 32 999.1 998.3 0.0
17/07:30am 32.5 22.6 6.7 20 14.1 NE 48 59 26 32 999.3 998.5 0.0
17/07:00am 30.5 21.8 8.3 25 12.4 NE 44 57 24 31 999.5 998.7 0.0
17/06:30am 28.0 19.8 9.8 32 10.2 ENE 43 54 23 29 999.5 998.7 0.0
17/06:00am 25.5 18.1 11.3 41 8.1 ENE 41 52 22 28 999.6 998.8 0.0
17/05:30am 23.1 16.7 12.1 50 6.3 ENE 37 48 20 26 999.5 998.7 0.0
17/05:00am 22.2 16.0 12.7 55 5.5 ENE 37 44 20 24 999.4 998.6 0.0
17/04:30am 20.9 14.7 12.8 60 4.6 ENE 37 46 20 25 999.3 998.5 0.0
17/04:00am 20.7 13.9 13.2 62 4.3 E 41 54 22 29 999.2 998.4 0.0
17/03:30am 20.8 14.4 13.3 62 4.3 E 39 50 21 27 999.2 998.4 0.0
17/03:00am 20.6 14.2 13.3 63 4.2 E 39 50 21 27 999.2 998.4 0.0
17/02:30am 20.5 14.6 13.5 64 4.0 E 37 48 20 26 999.4 998.6 0.0
17/02:00am 20.4 13.4 13.6 65 4.0 E 43 54 23 29 999.3 998.5 0.0
17/01:30am 20.2 14.3 13.6 66 3.8 E 37 50 20 27 999.9 999.1 0.0
17/01:00am 20.3 14.4 13.7 66 3.8 E 37 48 20 26 1000.3 999.5 0.0
17/12:30am 20.5 15.0 13.7 65 3.9 ESE 35 50 19 27 1000.9 1000.2 0.0
17/12:00am 20.9 15.4 13.6 63 4.3 ESE 35 44 19 24 1001.5 1000.8 0.0
 
Date/Time
WST
Temp
°C
App
Temp
°C
Dew
Point
°C
Rel
Hum
%
Delta-T
°C
Wind Press
QNH
hPa
Press
MSL
hPa
Rain since
9am
mm
Dir  Spd
km/h
Gust
km/h
Spd
kts
Gust
kts
16/11:30pm 21.1 15.7 14.0 64 4.1 ESE 35 43 19 23 1001.6 1000.9 0.0
16/11:00pm 21.5 15.4 14.2 63 4.3 ESE 39 50 21 27 1002.0 1001.3 0.0
16/10:30pm 22.0 17.1 14.4 62 4.5 ESE 33 43 18 23 1001.7 1001.0 0.0
16/10:11pm 22.0 17.6 14.1 61 4.6 ESE 30 48 16 26 1001.8 1001.1 0.0
16/10:00pm 21.8 16.8 13.9 61 4.6 E 33 43 18 23 1001.8 1001.1 0.0
16/09:30pm 21.9 16.5 14.0 61 4.6 ESE 35 48 19 26 1003.2 1002.5 0.0
16/09:00pm 21.8 15.2 13.7 60 4.7 ESE 41 52 22 28 1002.7 1002.0 0.0
16/08:30pm 21.7 15.6 14.1 62 4.5 ESE 39 50 21 27 1002.8 1002.1 0.0
16/08:00pm 22.3 16.2 14.2 60 4.8 ESE 39 56 21 30 1002.7 1002.0 0.0
16/07:30pm 23.0 16.9 14.0 57 5.3 ESE 39 50 21 27 1002.5 1001.8 0.0
16/07:00pm 24.2 17.2 13.7 52 6.2 ESE 43 56 23 30 1002.1 1001.4 0.0
16/06:36pm 25.1 17.9 13.6 49 6.8 ESE 44 63 24 34 1002.0 1001.3 0.0
16/06:30pm 25.3 17.7 13.5 48 7.0 SE 46 63 25 34 1001.8 1001.1 0.0
16/06:00pm 27.6 20.3 13.5 41 8.4 SE 44 59 24 32 1001.7 1001.0 0.0
16/05:30pm 29.9 22.4 12.8 35 10.2 SE 44 59 24 32 1001.6 1000.9 0.0
16/05:21pm 31.4 24.5 11.7 29 11.6 ESE 39 56 21 30 1001.5 1000.8 0.0
16/05:00pm 34.6 25.3 7.6 19 15.2 E 46 57 25 31 1001.0 1000.3 0.0
16/04:30pm 34.9 26.4 7.1 18 15.5 E 41 50 22 27 1001.0 1000.3 0.0
16/04:00pm 34.3 27.0 7.4 19 15.1 E 35 46 19 25 1001.6 1000.9 0.0
16/03:30pm 33.5 26.8 8.2 21 14.2 E 33 44 18 24 1001.5 1000.8 0.0
16/03:00pm 33.9 27.1 7.0 19 14.9 ENE 32 43 17 23 1002.7 1002.0 0.0
16/02:30pm 35.5 28.7 7.6 18 15.7 ENE 33 43 18 23 1002.4 1001.7 0.0
16/02:00pm 34.8 27.8 8.5 20 15.0 E 35 44 19 24 1002.9 1002.2 0.0
16/01:30pm 34.0 27.6 8.6 21 14.4 ENE 32 41 17 22 1003.7 1003.0 0.0
16/01:00pm 32.8 26.7 8.3 22 13.8 ENE 30 39 16 21 1004.3 1003.6 0.0
16/12:30pm 32.7 26.8 8.9 23 13.5 ENE 30 41 16 22 1004.9 1004.1 0.0
16/12:00pm 32.6 27.0 10.0 25 13.1 ENE 30 39 16 21 1005.3 1004.5 0.0
16/11:30am 32.4 26.7 11.0 27 12.5 ENE 32 41 17 22 1005.7 1004.9 0.0
16/11:00am 31.2 25.4 11.6 30 11.5 ENE 33 44 18 24 1006.2 1005.5 0.0
16/10:30am 29.9 23.7 11.4 32 10.8 ENE 35 48 19 26 1006.5 1005.8 0.0
16/10:00am 29.0 23.0 12.0 35 10.0 ENE 35 44 19 24 1006.9 1006.2 0.0
16/09:30am 27.2 21.7 12.4 40 8.6 ENE 33 41 18 22 1007.6 1006.9 0.0
16/09:00am 25.8 20.7 13.0 45 7.5 ENE 32 39 17 21 1008.3 1007.6 0.0
16/08:30am 24.7 21.0 13.9 51 6.4 ENE 26 35 14 19 1008.8 1008.1 0.0
16/08:00am 22.5 18.4 13.8 58 5.1 E 28 35 15 19 1008.9 1008.2 0.0
16/07:30am 20.6 16.4 13.6 64 4.1 E 28 35 15 19 1009.2 1008.5 0.0
16/07:00am 19.4 15.1 13.3 68 3.5 E 28 33 15 18 1009.5 1008.8 0.0
16/06:30am 18.1 14.3 13.6 75 2.6 E 26 30 14 16 1009.8 1009.1 0.0
16/06:00am 16.8 12.8 13.1 79 2.1 E 26 32 14 17 1009.9 1009.2 0.0
16/05:30am 15.2 10.7 12.7 85 1.4 ENE 28 33 15 18 1009.2 1008.5 0.0
16/05:00am 14.4 10.6 12.4 88 1.1 E 24 30 13 16 1008.8 1008.1 0.0
16/04:30am 13.9 10.1 12.5 91 0.8 E 24 30 13 16 1008.2 1007.5 0.0
16/04:00am 13.9 9.3 12.3 90 0.9 E 28 37 15 20 1007.4 1006.7 0.0
16/03:30am 14.0 9.4 12.4 90 0.9 E 28 32 15 17 1007.5 1006.8 0.0
16/03:00am 14.2 10.8 12.6 90 0.9 E 22 30 12 16 1007.5 1006.8 0.0
16/02:30am 14.3 11.0 12.7 90 0.9 E 22 28 12 15 1007.7 1007.0 0.0
16/02:00am 14.5 11.5 12.7 89 1.0 ESE 20 26 11 14 1008.0 1007.3 0.0
16/01:30am 14.7 11.9 12.7 88 1.1 ESE 19 24 10 13 1008.1 1007.4 0.0
16/01:00am 14.9 12.2 12.8 87 1.2 E 19 24 10 13 1008.5 1007.8 0.0
16/12:30am 15.0 11.3 12.7 86 1.3 E 24 30 13 16 1008.3 1007.6 0.0
16/12:00am 15.2 11.5 12.7 85 1.4 E 24 30 13 16 1008.4 1007.7 0.0
 
Date/Time
WST
Temp
°C
App
Temp
°C
Dew
Point
°C
Rel
Hum
%
Delta-T
°C
Wind Press
QNH
hPa
Press
MSL
hPa
Rain since
9am
mm
Dir  Spd
km/h
Gust
km/h
Spd
kts
Gust
kts
15/11:30pm 15.5 11.1 12.8 84 1.5 ESE 28 33 15 18 1008.6 1007.9 0.0
15/11:00pm 15.8 11.4 12.9 83 1.6 E 28 37 15 20 1008.7 1008.0 0.0
15/10:30pm 16.1 12.1 13.0 82 1.7 ESE 26 32 14 17 1009.0 1008.3 0.0
15/10:00pm 16.4 13.6 13.1 81 1.9 ESE 20 32 11 17 1009.3 1008.6 0.0
15/09:30pm 16.9 12.6 13.2 79 2.1 ESE 28 35 15 19 1009.3 1008.6 0.0
15/09:00pm 17.5 13.2 13.2 76 2.4 ESE 28 35 15 19 1009.4 1008.7 0.0
15/08:30pm 18.3 13.7 13.4 73 2.8 ESE 30 39 16 21 1009.4 1008.7 0.0
15/08:00pm 19.2 14.6 13.4 69 3.3 ESE 30 39 16 21 1008.9 1008.2 0.0
15/07:30pm 20.2 15.0 13.4 65 3.9 ESE 33 41 18 22 1008.0 1007.3 0.0
15/07:00pm 21.4 16.4 13.3 60 4.7 SE 32 43 17 23 1007.6 1006.9 0.0
15/06:30pm 23.5 19.1 12.8 51 6.2 ESE 28 46 15 25 1007.2 1006.5 0.0
15/06:27pm 23.9 20.8 12.2 48 6.7 ESE 20 46 11 25 1007.2 1006.5 0.0
15/06:00pm 27.3 24.9 10.1 34 9.7 ESE 13 19 7 10 1007.2 1006.5 0.0
15/05:30pm 27.8 25.1 9.1 31 10.4 E 13 19 7 10 1006.9 1006.2 0.0
15/05:00pm 27.9 24.9 9.2 31 10.4 ESE 15 20 8 11 1006.9 1006.2 0.0
15/04:30pm 28.2 25.3 9.5 31 10.5 E 15 22 8 12 1006.8 1006.1 0.0
15/04:00pm 28.1 25.8 8.9 30 10.7 ESE 11 17 6 9 1006.8 1006.1 0.0
15/03:30pm 27.6 25.0 9.4 32 10.1 ESE 13 20 7 11 1006.8 1006.1 0.0
15/03:00pm 27.5 24.7 8.4 30 10.5 E 13 20 7 11 1007.4 1006.7 0.0
15/02:30pm 27.5 25.7 9.3 32 10.1 SE 9 24 5 13 1007.6 1006.9 0.0
15/02:00pm 27.2 24.6 9.5 33 9.9 SE 13 24 7 13 1007.9 1007.2 0.0
15/01:30pm 26.3 24.9 9.6 35 9.3 ENE 7 20 4 11 1008.5 1007.8 0.0
15/01:00pm 25.3 23.1 9.2 36 8.8 E 11 20 6 11 1008.8 1008.1 0.0
15/12:30pm 25.4 23.0 10.1 38 8.5 ESE 13 26 7 14 1009.2 1008.5 0.0
15/12:00pm 24.1 20.8 9.7 40 7.9 E 17 26 9 14 1009.5 1008.8 0.0
15/11:30am 22.8 20.7 9.9 44 7.1 SE 11 22 6 12 1010.2 1009.5 0.0
15/11:00am 22.4 20.0 10.2 46 6.7 E 13 24 7 13 1010.7 1010.0 0.0
15/10:30am 21.3 18.6 10.2 49 6.1 E 15 33 8 18 1011.4 1010.6 0.0
15/10:00am 20.6 17.7 9.8 50 5.8 ENE 15 24 8 13 1012.0 1011.3 0.0
15/09:30am 19.5 17.1 10.0 54 5.1 E 13 26 7 14 1012.5 1011.8 0.0
15/09:00am 17.9 14.9 9.3 57 4.5 ENE 15 22 8 12 1012.9 1012.2 -
15/08:30am 18.0 15.7 10.4 61 4.1 E 13 20 7 11 1013.1 1012.4 -
15/08:00am 16.9 15.0 10.5 66 3.4 ENE 11 19 6 10 1013.4 1012.7 -
15/07:30am 16.7 14.4 10.3 66 3.4 ENE 13 19 7 10 1013.7 1013.0 -
15/07:00am 15.5 13.2 10.5 72 2.7 E 13 19 7 10 1013.8 1013.1 -
15/06:30am 15.0 13.5 10.4 74 2.4 E 9 15 5 8 1013.9 1013.2 -
15/06:00am 13.5 12.3 9.7 78 2.0 SW 6 7 3 4 1013.8 1013.1 -
15/05:30am 11.9 10.4 9.1 83 1.4 SW 7 9 4 5 1013.7 1013.0 -
15/05:00am 10.5 8.8 8.4 87 1.0 SW 7 7 4 4 1013.4 1012.7 -
15/04:30am 9.4 6.7 7.5 88 0.9 SW 11 11 6 6 1013.0 1012.3 -
15/04:00am 9.1 7.2 7.4 89 0.8 SW 7 9 4 5 1012.9 1012.2 -
15/03:30am 9.3 7.0 7.6 89 0.8 SW 9 9 5 5 1012.9 1012.2 -
15/03:00am 9.3 8.0 7.6 89 0.8 SE 4 13 2 7 1012.9 1012.2 0.0
15/02:30am 9.8 9.3 7.7 87 1.0 CALM 0 0 0 0 1012.8 1012.1 -
15/02:00am 9.8 9.3 7.7 87 1.0 CALM 0 0 0 0 1013.0 1012.3 -
15/01:30am 10.3 8.1 7.9 85 1.2 ESE 9 11 5 6 1012.7 1012.0 -
15/01:00am 10.7 8.1 7.8 82 1.4 ESE 11 13 6 7 1013.1 1012.4 -
15/12:30am 11.4 8.1 8.1 80 1.6 ESE 15 19 8 10 1013.3 1012.6 -
15/12:00am 11.0 8.9 8.1 82 1.4 SE 9 15 5 8 1014.0 1013.3 -
 
Date/Time
WST
Temp
°C
App
Temp
°C
Dew
Point
°C
Rel
Hum
%
Delta-T
°C
Wind Press
QNH
hPa
Press
MSL
hPa
Rain since
9am
mm
Dir  Spd
km/h
Gust
km/h
Spd
kts
Gust
kts
14/11:30pm 11.7 11.2 8.0 78 1.8 CALM 0 6 0 3 1014.7 1014.0 -
14/11:00pm 12.1 9.5 7.8 75 2.1 SE 11 15 6 8 1014.6 1013.9 -
14/10:30pm 12.7 9.8 8.0 73 2.3 SE 13 15 7 8 1014.9 1014.2 -
14/10:00pm 13.1 9.4 8.0 71 2.5 SE 17 20 9 11 1015.0 1014.3 -
14/09:30pm 13.6 9.5 7.8 68 2.9 SE 19 22 10 12 1015.2 1014.5 -
14/09:00pm 14.0 8.6 7.8 66 3.1 SE 26 32 14 17 1015.2 1014.5 0.0
14/08:30pm 14.4 8.9 7.7 64 3.3 SE 26 33 14 18 1015.4 1014.7 -
14/08:00pm 15.1 8.8 7.6 61 3.8 SE 30 39 16 21 1015.3 1014.6 -
14/07:30pm 15.9 9.1 7.7 58 4.1 SE 33 43 18 23 1015.1 1014.4 -
14/07:00pm 16.8 10.1 7.4 54 4.7 SE 32 41 17 22 1015.0 1014.3 -
14/06:30pm 17.7 10.6 6.6 48 5.5 SE 33 41 18 22 1014.8 1014.1 -
14/06:00pm 19.2 12.1 6.3 43 6.5 SE 33 44 18 24 1014.6 1013.9 -

Other Formats:

Comma delimited format used in spreadsheet applications
http://www.bom.gov.au/fwo/IDW60801/IDW60801.95646.axf

JavaScript Object Notation format (JSON) in row-major order
http://www.bom.gov.au/fwo/IDW60801/IDW60801.95646.json